Time;durP1;ratioP1;P1;durP2;ratioP2;P2;SDS_P1;SDS_P2;PMS_P1;PMS_P2;Temp;Humidity;BMP_temperature;BMP_pressure;BME280_temperature;BME280_humidity;BME280_pressure;Samples;Min_cycle;Max_cycle;Signal;HPM_P1;HPM_P2
2023/06/29 00:01:32;;;;;;;12.77;9.23;;;;;;;20.20;81.11;100902.59;5058702;28;20056;-80
2023/06/29 00:03:59;;;;;;;12.02;7.80;;;;;;;20.29;80.92;100907.66;5050598;28;20050;-77
2023/06/29 00:06:26;;;;;;;10.00;7.38;;;;;;;20.24;80.80;100896.84;5054960;28;20045;-80
2023/06/29 00:08:54;;;;;;;14.38;7.65;;;;;;;20.15;81.57;100897.09;5049984;28;20509;-80
2023/06/29 00:11:22;;;;;;;14.35;8.20;;;;;;;20.23;81.81;100895.22;5055312;28;20140;-81
2023/06/29 00:13:48;;;;;;;11.82;7.85;;;;;;;20.07;82.20;100894.66;5050162;28;20079;-81
2023/06/29 00:16:16;;;;;;;11.80;8.30;;;;;;;19.96;82.76;100892.66;5055031;28;20136;-80
2023/06/29 00:18:43;;;;;;;17.73;8.25;;;;;;;19.91;83.23;100895.13;5055214;28;20053;-80
2023/06/29 00:21:10;;;;;;;14.68;8.30;;;;;;;19.81;83.61;100890.31;5049433;28;20499;-81
2023/06/29 00:23:36;;;;;;;17.52;8.32;;;;;;;19.84;83.62;100891.72;5050964;28;20123;-81
2023/06/29 00:26:05;;;;;;;13.73;8.18;;;;;;;19.76;83.83;100891.94;5056410;28;20063;-81
2023/06/29 00:28:31;;;;;;;13.20;8.15;;;;;;;19.84;83.76;100897.03;5052879;28;20048;-84
2023/06/29 00:30:58;;;;;;;9.98;7.85;;;;;;;19.96;83.24;100899.81;5050166;28;20076;-81
2023/06/29 00:33:24;;;;;;;10.07;7.55;;;;;;;19.99;82.98;100897.56;5054869;28;20136;-80
2023/06/29 00:35:51;;;;;;;12.63;8.55;;;;;;;19.95;82.91;100896.34;5047275;28;20049;-81
2023/06/29 00:38:17;;;;;;;12.70;8.30;;;;;;;19.95;83.26;100896.34;5053270;28;20137;-81
2023/06/29 00:40:44;;;;;;;13.45;8.20;;;;;;;19.91;83.35;100892.47;5055103;28;20507;-80
2023/06/29 00:43:12;;;;;;;11.43;8.23;;;;;;;19.74;83.88;100889.50;5049126;28;20084;-81
2023/06/29 00:45:39;;;;;;;12.40;8.43;;;;;;;19.77;84.01;100881.13;5055514;28;20485;-82
2023/06/29 00:48:06;;;;;;;10.75;8.15;;;;;;;19.67;84.37;100882.59;5055650;28;20045;-79
2023/06/29 00:50:33;;;;;;;13.18;8.35;;;;;;;19.63;84.67;100882.19;5054331;28;20059;-81
2023/06/29 00:53:00;;;;;;;15.00;8.18;;;;;;;19.52;85.04;100883.63;5054405;28;20140;-79
2023/06/29 00:55:27;;;;;;;11.95;8.35;;;;;;;19.51;85.51;100879.34;5055490;28;20048;-80
2023/06/29 00:57:54;;;;;;;17.23;8.75;;;;;;;19.48;85.81;100884.22;5059247;28;20079;-80
2023/06/29 01:00:22;;;;;;;15.85;8.90;;;;;;;19.54;85.67;100878.94;5054009;28;20071;-81
2023/06/29 01:02:49;;;;;;;13.25;8.02;;;;;;;19.50;85.65;100879.53;5047884;28;20127;-81
2023/06/29 01:05:17;;;;;;;11.27;8.23;;;;;;;19.45;85.94;100880.16;5054316;28;20143;-81
2023/06/29 01:07:48;;;;;;;14.38;8.55;;;;;;;19.44;85.82;100869.75;5055053;28;20518;-82
2023/06/29 01:10:19;;;;;;;15.07;8.57;;;;;;;19.40;86.03;100869.34;5051873;28;20069;-81
2023/06/29 01:12:48;;;;;;;13.15;8.32;;;;;;;19.40;86.30;100868.53;5055749;28;20124;-81
2023/06/29 01:15:16;;;;;;;10.93;7.75;;;;;;;19.45;86.37;100876.69;5055632;28;20482;-81
2023/06/29 01:17:46;;;;;;;11.82;7.68;;;;;;;19.51;86.13;100875.88;5053985;28;20129;-81
2023/06/29 01:20:15;;;;;;;14.02;8.60;;;;;;;19.34;86.33;100869.38;5050184;28;20053;-81
2023/06/29 01:22:52;;;;;;;12.50;8.68;;;;;;;19.29;86.78;100870.00;5059198;28;20056;-82
2023/06/29 01:25:21;;;;;;;14.07;8.98;;;;;;;19.28;87.06;100868.38;5058838;28;20071;-82
2023/06/29 01:27:48;;;;;;;13.57;9.02;;;;;;;19.17;87.43;100872.47;5055645;28;20037;-81
2023/06/29 01:30:15;;;;;;;11.70;8.15;;;;;;;19.18;87.65;100873.28;5055255;28;20537;-81
2023/06/29 01:32:41;;;;;;;12.73;8.73;;;;;;;19.14;87.78;100872.06;5061677;28;20076;-80
2023/06/29 01:35:09;;;;;;;13.25;8.73;;;;;;;19.05;88.25;100867.97;5060727;28;20072;-80
2023/06/29 01:37:41;;;;;;;12.93;8.90;;;;;;;19.17;88.37;100861.03;5059581;28;20043;-80
2023/06/29 01:40:11;;;;;;;12.60;8.88;;;;;;;19.21;88.53;100876.34;5060516;28;20045;-80
2023/06/29 01:42:41;;;;;;;15.02;9.07;;;;;;;19.05;88.91;100873.28;5060431;28;20076;-81
2023/06/29 01:45:09;;;;;;;13.52;8.85;;;;;;;19.10;88.84;100868.19;5054154;28;20128;-79
2023/06/29 01:47:36;;;;;;;13.00;8.80;;;;;;;19.16;88.89;100880.63;5053792;28;20072;-80
2023/06/29 01:50:04;;;;;;;13.93;8.55;;;;;;;19.13;88.93;100867.78;5048885;28;20108;-79
2023/06/29 01:52:31;;;;;;;15.85;9.00;;;;;;;19.29;88.71;100874.50;5053046;28;20049;-81
2023/06/29 01:54:58;;;;;;;17.00;8.68;;;;;;;19.20;88.38;100860.63;5049812;28;20057;-80
2023/06/29 01:57:25;;;;;;;17.33;9.75;;;;;;;19.18;88.25;100857.38;5054458;28;20504;-82
2023/06/29 01:59:53;;;;;;;16.33;10.13;;;;;;;19.16;88.76;100854.09;5057454;28;20095;-81
2023/06/29 02:02:20;;;;;;;12.13;8.52;;;;;;;19.14;88.63;100864.91;5056510;28;20124;-80
2023/06/29 02:04:46;;;;;;;14.32;8.90;;;;;;;19.04;88.74;100864.50;5048865;28;20134;-80
2023/06/29 02:07:13;;;;;;;12.00;8.32;;;;;;;19.00;89.11;100863.28;5055386;28;20108;-80
2023/06/29 02:09:40;;;;;;;14.40;8.57;;;;;;;19.03;88.99;100860.22;5055568;28;20053;-80
2023/06/29 02:12:08;;;;;;;12.77;8.27;;;;;;;19.03;88.79;100851.47;5048072;28;20081;-80
2023/06/29 02:14:34;;;;;;;15.65;8.77;;;;;;;19.04;88.67;100853.91;5056926;28;20055;-80
2023/06/29 02:17:02;;;;;;;13.50;8.38;;;;;;;19.01;88.50;100843.72;5062286;28;20113;-80
2023/06/29 02:19:29;;;;;;;15.73;8.38;;;;;;;19.00;88.71;100843.91;5054335;28;20085;-80
2023/06/29 02:21:55;;;;;;;13.38;8.40;;;;;;;19.01;88.83;100850.84;5051010;28;20219;-81
2023/06/29 02:24:23;;;;;;;15.80;8.35;;;;;;;18.95;88.90;100843.72;5052123;28;20048;-80
2023/06/29 02:26:49;;;;;;;12.20;8.55;;;;;;;18.99;88.72;100842.28;5046127;28;20106;-81
2023/06/29 02:29:16;;;;;;;14.73;8.48;;;;;;;18.99;89.05;100847.59;5052917;28;20049;-80
2023/06/29 02:31:42;;;;;;;14.45;8.55;;;;;;;18.95;89.25;100846.38;5052657;28;20136;-80
2023/06/29 02:34:11;;;;;;;13.48;8.18;;;;;;;18.87;89.61;100834.97;5053785;28;20149;-82
2023/06/29 02:36:37;;;;;;;16.00;8.55;;;;;;;18.85;90.15;100846.81;5054394;28;20045;-81
2023/06/29 02:39:05;;;;;;;13.98;8.15;;;;;;;18.73;90.80;100843.13;5053957;28;20061;-81
2023/06/29 02:41:31;;;;;;;17.85;8.55;;;;;;;18.69;91.46;100840.06;5054628;28;20091;-82
2023/06/29 02:43:58;;;;;;;12.05;8.73;;;;;;;18.65;91.81;100841.50;5055130;28;20596;-82
2023/06/29 02:46:24;;;;;;;15.57;8.73;;;;;;;18.72;91.82;100841.50;5056035;28;20060;-80
2023/06/29 02:48:51;;;;;;;14.48;8.15;;;;;;;18.64;92.30;100845.16;5061345;28;20073;-81
2023/06/29 02:51:19;;;;;;;13.25;8.43;;;;;;;18.65;92.51;100846.78;5048768;28;20052;-81
2023/06/29 02:53:46;;;;;;;15.57;8.55;;;;;;;18.62;92.87;100849.84;5056117;28;20423;-82
2023/06/29 02:56:12;;;;;;;14.10;8.68;;;;;;;18.61;93.01;100845.56;5052766;28;20134;-82
2023/06/29 02:58:39;;;;;;;11.55;8.15;;;;;;;18.58;93.36;100851.25;5057175;28;20071;-81
2023/06/29 03:01:06;;;;;;;16.55;8.82;;;;;;;18.64;93.13;100839.88;5055745;28;20109;-79
2023/06/29 03:03:32;;;;;;;10.75;8.63;;;;;;;18.59;92.87;100834.31;5055803;28;20048;-81
2023/06/29 03:05:59;;;;;;;16.05;9.35;;;;;;;18.65;92.91;100836.19;5056040;28;20093;-77
2023/06/29 03:08:27;;;;;;;17.40;9.95;;;;;;;18.63;92.96;100838.22;5055799;28;20110;-79
2023/06/29 03:10:53;;;;;;;19.67;9.75;;;;;;;18.61;92.97;100840.25;5055746;28;20041;-79
2023/06/29 03:13:20;;;;;;;12.65;8.57;;;;;;;18.62;92.93;100833.94;5059726;28;20044;-78
2023/06/29 03:15:46;;;;;;;16.58;9.07;;;;;;;18.61;92.62;100837.63;5074898;28;20069;-80
2023/06/29 03:18:13;;;;;;;15.07;8.95;;;;;;;18.64;92.52;100833.75;5072215;28;20089;-80
2023/06/29 03:20:40;;;;;;;11.98;8.35;;;;;;;18.62;92.38;100836.59;5073210;28;20056;-82
2023/06/29 03:23:06;;;;;;;15.82;8.63;;;;;;;18.62;92.07;100826.00;5057079;28;20091;-79
2023/06/29 03:25:34;;;;;;;17.63;8.70;;;;;;;18.66;91.61;100824.56;5053177;28;20061;-79
2023/06/29 03:28:01;;;;;;;16.45;8.55;;;;;;;18.66;91.48;100827.22;5049303;28;20115;-81
2023/06/29 03:30:27;;;;;;;16.85;8.20;;;;;;;18.67;91.48;100828.03;5054955;28;20136;-81
2023/06/29 03:32:56;;;;;;;13.63;7.97;;;;;;;18.66;91.56;100831.72;5053396;28;20449;-83
2023/06/29 03:35:23;;;;;;;12.57;8.57;;;;;;;18.62;91.70;100831.31;5044469;28;20045;-83
2023/06/29 03:37:49;;;;;;;15.35;9.00;;;;;;;18.65;91.92;100833.53;5059466;28;20048;-79
2023/06/29 03:40:16;;;;;;;11.80;8.18;;;;;;;18.66;92.24;100823.75;5059955;28;20136;-82
2023/06/29 03:42:44;;;;;;;15.55;8.45;;;;;;;18.67;91.69;100820.09;5058271;28;20512;-81
2023/06/29 03:45:11;;;;;;;13.30;8.13;;;;;;;18.69;91.33;100823.34;5055800;28;20140;-82
2023/06/29 03:47:38;;;;;;;10.80;8.30;;;;;;;18.85;91.28;100826.41;5058660;28;20520;-78
2023/06/29 03:50:05;;;;;;;16.38;7.93;;;;;;;18.83;90.84;100817.03;5057607;28;20607;-81
2023/06/29 03:52:32;;;;;;;11.90;7.95;;;;;;;18.86;90.87;100817.44;5058123;28;20116;-81
2023/06/29 03:54:58;;;;;;;10.73;8.13;;;;;;;18.82;91.03;100824.16;5058344;28;20128;-81
2023/06/29 03:57:25;;;;;;;12.32;7.43;;;;;;;18.84;90.95;100824.78;5057235;28;20174;-81
2023/06/29 03:59:53;;;;;;;16.33;8.85;;;;;;;18.90;90.70;100815.97;5041032;28;20079;-81
2023/06/29 04:02:19;;;;;;;10.70;7.45;;;;;;;18.97;90.25;100809.84;5057357;28;20108;-81
2023/06/29 04:04:46;;;;;;;13.65;7.60;;;;;;;18.97;89.90;100813.31;5056709;28;20488;-81
2023/06/29 04:07:13;;;;;;;12.45;7.28;;;;;;;18.90;90.43;100813.31;5058465;28;20427;-82
2023/06/29 04:09:39;;;;;;;13.35;8.23;;;;;;;18.86;90.48;100806.00;5056964;28;20053;-82
2023/06/29 04:12:07;;;;;;;16.08;8.00;;;;;;;18.80;90.55;100799.69;5055695;28;20132;-82
2023/06/29 04:14:33;;;;;;;14.40;8.23;;;;;;;18.85;90.47;100802.56;5060238;28;20102;-82
2023/06/29 04:17:01;;;;;;;11.25;7.32;;;;;;;18.90;90.29;100800.06;5055902;28;20143;-82
2023/06/29 04:19:28;;;;;;;13.60;8.07;;;;;;;18.96;90.22;100794.97;5056039;28;20071;-81
2023/06/29 04:21:54;;;;;;;14.75;7.78;;;;;;;18.93;90.17;100790.06;5060924;28;20108;-83
2023/06/29 04:24:21;;;;;;;15.80;8.95;;;;;;;18.95;90.74;100795.97;5056346;28;20076;-82
2023/06/29 04:26:48;;;;;;;12.77;8.13;;;;;;;19.07;90.86;100794.34;5059645;28;20096;-82
2023/06/29 04:29:15;;;;;;;11.00;8.30;;;;;;;19.03;90.97;100798.41;5060633;28;20052;-82
2023/06/29 04:31:41;;;;;;;15.75;8.50;;;;;;;18.99;91.18;100797.19;5060077;28;20153;-81
2023/06/29 04:34:09;;;;;;;13.18;7.93;;;;;;;19.07;91.14;100795.16;5067146;28;20080;-81
2023/06/29 04:36:36;;;;;;;12.95;8.05;;;;;;;18.90;91.67;100801.94;5064361;28;20049;-82
2023/06/29 04:39:03;;;;;;;12.27;7.60;;;;;;;18.94;92.26;100799.66;5060799;28;20482;-82
2023/06/29 04:41:33;;;;;;;15.00;8.68;;;;;;;19.06;91.91;100795.34;5060435;28;20107;-81
2023/06/29 04:44:00;;;;;;;16.55;8.65;;;;;;;18.91;92.31;100803.53;5060933;28;20116;-81
2023/06/29 04:46:29;;;;;;;16.80;8.63;;;;;;;18.96;92.65;100797.63;5061327;28;20079;-80
2023/06/29 04:48:55;;;;;;;12.68;7.78;;;;;;;19.06;92.19;100796.16;5057637;28;20056;-82
2023/06/29 04:51:25;;;;;;;14.98;8.27;;;;;;;19.14;91.41;100800.44;5058626;28;20072;-82
2023/06/29 04:53:51;;;;;;;15.10;8.55;;;;;;;19.08;91.53;100799.44;5048539;28;20060;-82
2023/06/29 04:56:18;;;;;;;13.15;8.23;;;;;;;19.10;91.65;100794.75;5057917;28;20055;-81
2023/06/29 04:58:44;;;;;;;14.95;8.02;;;;;;;19.13;91.57;100791.66;5057387;28;20140;-81
2023/06/29 05:01:11;;;;;;;18.15;7.43;;;;;;;19.06;91.98;100790.88;5056929;28;20053;-83
2023/06/29 05:03:38;;;;;;;14.43;8.10;;;;;;;19.28;91.25;100794.09;5057614;28;20048;-83
2023/06/29 05:06:04;;;;;;;12.32;7.35;;;;;;;19.37;91.17;100797.31;5056222;28;20129;-84
2023/06/29 05:08:32;;;;;;;10.43;7.10;;;;;;;19.37;91.47;100803.44;5057145;28;20116;-82
2023/06/29 05:10:59;;;;;;;13.25;7.68;;;;;;;19.46;91.17;100794.19;5051652;28;20064;-81
2023/06/29 05:13:26;;;;;;;12.50;7.13;;;;;;;19.37;90.93;100792.84;5060402;28;20084;-82
2023/06/29 05:15:52;;;;;;;13.65;7.25;;;;;;;19.40;90.86;100792.38;5058731;28;20073;-81
2023/06/29 05:18:19;;;;;;;12.57;7.72;;;;;;;19.48;90.45;100794.00;5058697;28;20102;-80
2023/06/29 05:20:46;;;;;;;13.05;7.55;;;;;;;19.45;90.62;100795.22;5056071;28;20136;-82
2023/06/29 05:23:13;;;;;;;10.85;8.13;;;;;;;19.47;90.81;100787.88;5055145;28;20076;-82
2023/06/29 05:25:41;;;;;;;13.30;7.97;;;;;;;19.55;91.01;100790.31;5055115;28;20479;-82
2023/06/29 05:28:08;;;;;;;16.33;7.68;;;;;;;19.66;90.72;100791.50;5055695;28;20041;-84
2023/06/29 05:30:35;;;;;;;13.13;7.63;;;;;;;19.71;90.24;100782.91;5056300;28;20068;-82
2023/06/29 05:33:01;;;;;;;12.13;7.78;;;;;;;19.74;89.52;100779.84;5057129;28;20049;-82
2023/06/29 05:35:28;;;;;;;16.00;8.63;;;;;;;19.60;89.74;100780.91;5064075;28;20117;-86
2023/06/29 05:37:55;;;;;;;11.40;8.32;;;;;;;19.50;90.11;100774.19;5055188;28;20084;-80
2023/06/29 05:40:21;;;;;;;14.32;8.10;;;;;;;19.58;89.58;100775.00;5055541;28;20044;-82
2023/06/29 05:42:49;;;;;;;11.30;7.50;;;;;;;19.69;89.03;100775.16;5055860;28;20144;-83
2023/06/29 05:45:16;;;;;;;16.95;8.07;;;;;;;19.67;88.67;100771.91;5056571;28;20127;-83
2023/06/29 05:47:42;;;;;;;14.52;7.20;;;;;;;19.73;89.12;100767.59;5055846;28;20045;-81
2023/06/29 05:50:10;;;;;;;9.95;7.82;;;;;;;19.69;89.16;100784.97;5060749;28;20483;-82
2023/06/29 05:52:37;;;;;;;16.38;7.85;;;;;;;19.72;88.94;100779.22;5058722;28;20235;-79
2023/06/29 05:55:04;;;;;;;11.52;7.88;;;;;;;19.73;88.88;100775.56;5052897;28;20048;-81
2023/06/29 05:57:31;;;;;;;11.70;7.65;;;;;;;19.67;89.59;100773.75;5052921;28;20118;-80
2023/06/29 05:59:59;;;;;;;11.15;7.60;;;;;;;19.76;89.88;100780.44;5057178;28;20057;-82
2023/06/29 06:02:26;;;;;;;9.25;7.35;;;;;;;19.82;89.86;100782.25;5059420;28;20475;-80
2023/06/29 06:04:53;;;;;;;11.45;7.60;;;;;;;19.92;89.79;100779.09;5059099;28;20547;-81
2023/06/29 06:07:28;;;;;;;12.85;7.90;;;;;;;19.93;89.46;100776.22;5048276;28;20441;-80
2023/06/29 06:09:55;;;;;;;10.30;7.35;;;;;;;19.91;89.54;100786.25;5053883;28;20111;-81
2023/06/29 06:12:22;;;;;;;13.73;7.45;;;;;;;19.94;89.30;100771.75;5046936;28;20065;-81
2023/06/29 06:14:50;;;;;;;11.68;7.43;;;;;;;20.00;88.70;100779.66;5055930;28;20040;-82
2023/06/29 06:17:21;;;;;;;13.65;7.47;;;;;;;20.05;88.47;100779.84;5054339;28;20159;-82
2023/06/29 06:19:49;;;;;;;10.80;7.63;;;;;;;20.26;87.53;100764.59;5053155;28;20077;-80
2023/06/29 06:22:16;;;;;;;10.48;7.30;;;;;;;20.49;86.92;100770.94;5038586;28;20132;-79
2023/06/29 06:24:43;;;;;;;12.07;7.07;;;;;;;20.52;86.77;100767.03;5045210;28;20459;-81
2023/06/29 06:27:11;;;;;;;13.10;7.30;;;;;;;20.70;86.93;100772.41;5046320;28;20049;-80
2023/06/29 06:29:39;;;;;;;16.35;8.40;;;;;;;20.92;86.08;100785.28;5049153;28;20126;-81
2023/06/29 06:32:06;;;;;;;13.45;7.80;;;;;;;21.19;85.46;100774.16;5051590;28;20061;-83
2023/06/29 06:34:34;;;;;;;13.40;7.35;;;;;;;21.40;84.51;100767.56;5051001;28;20064;-83
2023/06/29 06:37:01;;;;;;;11.00;7.55;;;;;;;21.23;84.38;100761.25;5053341;28;20069;-81
2023/06/29 06:39:32;;;;;;;11.65;7.30;;;;;;;21.51;82.59;100763.34;5055936;28;20053;-81
2023/06/29 06:41:59;;;;;;;13.45;7.22;;;;;;;21.38;82.18;100751.00;5051412;28;20045;-84
2023/06/29 06:44:26;;;;;;;11.02;7.32;;;;;;;21.31;82.43;100762.75;5046735;28;20052;-79
2023/06/29 06:46:54;;;;;;;9.45;6.82;;;;;;;21.67;81.76;100768.06;5058366;28;20053;-83
2023/06/29 06:49:29;;;;;;;11.45;7.38;;;;;;;21.80;81.34;100767.03;5063774;28;20052;-84
2023/06/29 06:52:02;;;;;;;9.07;7.10;;;;;;;22.10;80.30;100770.53;5053513;28;20049;-82
2023/06/29 06:54:29;;;;;;;11.13;6.93;;;;;;;22.65;78.63;100758.78;5062511;28;20065;-82
2023/06/29 06:56:57;;;;;;;13.07;7.13;;;;;;;22.61;77.10;100763.75;5048256;28;20068;-82
2023/06/29 06:59:26;;;;;;;15.32;6.88;;;;;;;22.71;77.64;100757.81;5043015;28;20067;-85
2023/06/29 07:01:53;;;;;;;12.90;7.43;;;;;;;22.71;77.47;100763.97;5055553;28;20045;-83
2023/06/29 07:04:20;;;;;;;13.25;7.70;;;;;;;22.73;76.58;100767.22;5051397;28;20068;-83
2023/06/29 07:06:50;;;;;;;15.43;7.18;;;;;;;22.72;76.72;100764.78;5056725;28;20057;-84
2023/06/29 07:09:26;;;;;;;10.95;7.10;;;;;;;22.57;76.54;100757.25;5057563;28;20212;-83
2023/06/29 07:11:53;;;;;;;12.57;7.57;;;;;;;23.27;75.64;100761.72;5054637;28;20596;-83
2023/06/29 07:14:21;;;;;;;9.38;6.88;;;;;;;24.06;73.82;100771.53;5047351;28;20081;-83
2023/06/29 07:16:58;;;;;;;13.20;7.35;;;;;;;24.35;72.33;100769.59;5057297;28;20057;-82
2023/06/29 07:19:25;;;;;;;12.65;7.00;;;;;;;24.49;72.38;100764.75;5047807;28;20258;-82
2023/06/29 07:21:53;;;;;;;10.40;6.40;;;;;;;24.07;71.72;100751.75;5051008;28;20090;-82
2023/06/29 07:24:25;;;;;;;12.40;6.80;;;;;;;23.82;73.26;100764.66;5052281;28;20048;-81
2023/06/29 07:26:53;;;;;;;12.82;6.72;;;;;;;23.76;73.38;100746.91;5046043;28;20079;-82
2023/06/29 07:29:20;;;;;;;12.32;6.25;;;;;;;23.49;73.81;100760.84;5047568;28;20049;-84
2023/06/29 07:31:48;;;;;;;11.30;6.80;;;;;;;23.17;74.19;100754.28;5054457;28;20069;-83
2023/06/29 07:34:15;;;;;;;9.60;6.28;;;;;;;22.93;74.76;100750.88;5057027;28;20059;-83
2023/06/29 07:36:42;;;;;;;13.15;6.43;;;;;;;22.94;75.97;100755.16;5057695;28;20045;-84
2023/06/29 07:39:09;;;;;;;15.43;6.88;;;;;;;22.90;75.57;100750.53;5057873;28;20048;-84
2023/06/29 07:41:38;;;;;;;13.18;6.55;;;;;;;22.96;75.59;100738.94;5056986;28;20080;-84
2023/06/29 07:44:05;;;;;;;14.80;6.53;;;;;;;23.06;75.63;100747.16;5058386;28;20052;-84
2023/06/29 07:46:32;;;;;;;9.00;6.65;;;;;;;22.97;75.61;100736.03;5058642;28;20215;-84
2023/06/29 07:48:59;;;;;;;12.85;7.53;;;;;;;22.77;76.36;100749.69;5058768;28;20049;-83
2023/06/29 07:51:31;;;;;;;12.00;6.97;;;;;;;23.04;77.06;100746.56;5049592;28;20045;-83
2023/06/29 07:53:58;;;;;;;9.85;6.15;;;;;;;22.77;77.11;100730.22;5060108;28;20052;-85
2023/06/29 07:56:25;;;;;;;10.98;6.25;;;;;;;23.16;76.65;100739.31;5058849;28;20537;-83
2023/06/29 07:58:53;;;;;;;15.15;7.03;;;;;;;23.13;75.85;100743.31;5059511;28;20124;-85
2023/06/29 08:01:19;;;;;;;12.45;6.97;;;;;;;23.17;75.88;100743.63;5055481;28;20554;-86
2023/06/29 08:03:46;;;;;;;13.68;6.93;;;;;;;23.04;76.07;100747.38;5056623;28;20077;-84
2023/06/29 08:06:12;;;;;;;10.30;6.47;;;;;;;22.62;76.70;100749.38;5055516;28;20131;-84
2023/06/29 08:08:39;;;;;;;12.02;6.80;;;;;;;23.07;77.22;100749.59;5059403;28;20053;-86
2023/06/29 08:11:06;;;;;;;10.88;6.63;;;;;;;22.97;75.92;100738.69;5055300;28;20145;-84
2023/06/29 08:13:32;;;;;;;9.10;6.80;;;;;;;22.82;76.15;100739.16;5050815;28;20184;-85
2023/06/29 08:16:00;;;;;;;9.20;6.30;;;;;;;23.03;75.67;100736.94;5056966;28;20093;-85
2023/06/29 08:18:27;;;;;;;12.25;7.18;;;;;;;22.98;75.86;100739.50;5055349;28;20079;-83
2023/06/29 08:20:54;;;;;;;9.15;6.22;;;;;;;23.52;75.56;100742.72;5057625;28;20128;-85
2023/06/29 08:23:20;;;;;;;12.38;6.47;;;;;;;23.90;73.65;100745.56;5056922;28;20079;-83
2023/06/29 08:25:48;;;;;;;13.65;6.57;;;;;;;24.22;72.45;100745.00;5056687;28;20080;-83
2023/06/29 08:28:14;;;;;;;9.63;6.38;;;;;;;23.76;72.50;100738.91;5054514;28;20100;-81
2023/06/29 08:30:41;;;;;;;11.57;6.70;;;;;;;23.89;72.25;100740.47;5057634;28;20072;-83
2023/06/29 08:33:09;;;;;;;11.38;7.40;;;;;;;23.74;72.99;100743.66;5056199;28;20076;-83
2023/06/29 08:35:35;;;;;;;16.15;7.70;;;;;;;23.71;71.69;100728.13;5055581;28;20107;-84
2023/06/29 08:38:02;;;;;;;12.20;7.30;;;;;;;24.27;71.91;100735.25;5056546;28;20053;-85
2023/06/29 08:40:33;;;;;;;13.80;7.90;;;;;;;24.63;70.74;100736.56;5058608;28;20099;-82
2023/06/29 08:43:00;;;;;;;14.60;8.50;;;;;;;25.03;69.00;100730.19;5054596;28;20109;-85
2023/06/29 08:45:27;;;;;;;11.45;8.15;;;;;;;25.14;68.43;100735.41;5057479;28;20049;-80
2023/06/29 08:47:55;;;;;;;14.35;8.70;;;;;;;25.14;68.76;100729.25;5065960;28;20040;-86
2023/06/29 08:50:26;;;;;;;19.33;9.68;;;;;;;25.06;69.62;100735.03;5055922;28;20512;-85
2023/06/29 08:52:53;;;;;;;14.10;9.23;;;;;;;25.30;68.82;100728.38;5057193;28;20496;-85
2023/06/29 08:55:21;;;;;;;15.95;8.93;;;;;;;25.29;68.64;100726.75;5057008;28;20296;-84
2023/06/29 08:57:47;;;;;;;17.52;10.02;;;;;;;24.88;69.35;100725.41;5056877;28;20056;-85
2023/06/29 09:00:15;;;;;;;16.02;9.55;;;;;;;24.87;69.46;100728.34;5057180;28;20106;-86
2023/06/29 09:02:43;;;;;;;12.98;9.20;;;;;;;24.87;69.39;100720.31;5057340;28;20084;-85
2023/06/29 09:05:12;;;;;;;12.40;8.73;;;;;;;24.43;70.73;100723.72;5059334;28;20052;-86
2023/06/29 09:07:41;;;;;;;17.75;10.70;;;;;;;25.22;68.75;100725.31;5058330;28;20051;-84
2023/06/29 09:10:10;;;;;;;13.50;9.80;;;;;;;25.76;67.36;100723.50;5058179;28;20045;-86
2023/06/29 09:12:37;;;;;;;13.13;10.23;;;;;;;25.50;67.99;100727.78;5059415;28;20092;-86
2023/06/29 09:15:08;;;;;;;17.85;10.75;;;;;;;26.17;66.22;100721.16;5056884;28;20484;-85
2023/06/29 09:17:35;;;;;;;19.33;10.30;;;;;;;26.75;65.60;100726.38;5058837;28;20056;-85
2023/06/29 09:20:13;;;;;;;15.65;10.85;;;;;;;26.74;63.62;100703.28;5059344;28;20051;-85
2023/06/29 09:22:41;;;;;;;17.45;11.65;;;;;;;26.61;65.07;100711.81;5060241;28;20049;-86
2023/06/29 09:25:10;;;;;;;17.08;11.25;;;;;;;27.27;63.17;100704.06;5060754;28;20040;-86
2023/06/29 09:27:37;;;;;;;13.77;10.88;;;;;;;27.64;61.44;100708.44;5059748;28;20040;-85
2023/06/29 09:30:05;;;;;;;14.00;11.05;;;;;;;28.00;61.36;100703.88;5055593;28;20064;-83
2023/06/29 09:32:38;;;;;;;15.52;11.23;;;;;;;28.15;61.31;100705.75;5055709;28;20095;-85
2023/06/29 09:35:09;;;;;;;17.07;11.30;;;;;;;28.54;60.79;100700.59;5044315;28;20083;-85
2023/06/29 09:37:36;;;;;;;37.85;13.23;;;;;;;28.61;60.45;100707.31;5052041;28;20319;-84
2023/06/29 09:40:09;;;;;;;29.73;11.85;;;;;;;28.81;59.77;100705.66;5051543;28;20126;-82
2023/06/29 09:42:37;;;;;;;17.02;10.82;;;;;;;28.55;58.94;100696.84;5053801;28;20049;-82
2023/06/29 09:45:07;;;;;;;20.40;11.75;;;;;;;28.79;58.28;100683.56;5054139;28;20055;-82
2023/06/29 09:47:34;;;;;;;17.88;11.15;;;;;;;28.79;59.02;100697.84;5052949;28;20185;-82
2023/06/29 09:50:01;;;;;;;17.13;12.18;;;;;;;28.96;59.16;100687.53;5063228;28;20120;-80
2023/06/29 09:52:28;;;;;;;16.35;11.93;;;;;;;29.10;58.95;100686.94;5060620;28;20049;-83
2023/06/29 09:54:58;;;;;;;17.02;12.73;;;;;;;29.06;58.16;100681.31;5058671;28;20076;-82
2023/06/29 09:57:27;;;;;;;19.95;11.48;;;;;;;28.51;59.57;100691.19;5061035;28;20049;-82
2023/06/29 09:59:55;;;;;;;15.32;11.60;;;;;;;28.25;60.10;100692.34;5050121;28;20476;-82
2023/06/29 10:02:21;;;;;;;17.88;11.98;;;;;;;27.84;60.77;100696.91;5056325;28;20128;-80
2023/06/29 10:04:48;;;;;;;15.50;11.98;;;;;;;27.79;61.20;100689.66;5052465;28;20110;-80
2023/06/29 10:07:17;;;;;;;17.63;11.38;;;;;;;27.41;61.58;100680.97;5057504;28;20128;-82
2023/06/29 10:09:47;;;;;;;20.35;11.85;;;;;;;27.29;62.37;100675.06;5054625;28;20048;-81
2023/06/29 10:12:15;;;;;;;17.92;12.65;;;;;;;26.83;62.17;100668.72;5055630;28;20072;-80
2023/06/29 10:14:45;;;;;;;20.63;13.07;;;;;;;26.96;63.93;100676.28;5052337;28;20052;-79
2023/06/29 10:17:20;;;;;;;19.95;13.10;;;;;;;26.60;65.21;100677.19;5048655;28;20084;-78
2023/06/29 10:19:48;;;;;;;22.17;13.50;;;;;;;26.59;66.69;100687.09;5055896;28;20128;-83
2023/06/29 10:22:18;;;;;;;21.17;13.73;;;;;;;26.59;66.92;100676.38;5061893;28;20053;-82
2023/06/29 10:24:49;;;;;;;24.13;14.85;;;;;;;26.26;67.36;100685.56;5051739;28;20142;-83
2023/06/29 10:27:17;;;;;;;23.07;15.03;;;;;;;26.04;67.79;100672.25;5055264;28;20045;-82
2023/06/29 10:29:50;;;;;;;21.88;14.32;;;;;;;25.83;68.55;100677.72;5051104;28;20041;-81
2023/06/29 10:32:35;;;;;;;25.60;14.93;;;;;;;25.70;68.96;100673.59;5052371;28;20055;-83
2023/06/29 10:35:08;;;;;;;20.52;13.75;;;;;;;25.82;68.45;100668.88;5049414;28;20075;-80
2023/06/29 10:37:36;;;;;;;26.42;14.52;;;;;;;25.99;67.89;100677.59;5053820;28;20045;-81
2023/06/29 10:40:07;;;;;;;20.05;13.65;;;;;;;26.11;67.97;100661.31;5051617;28;20064;-82
2023/06/29 10:42:57;;;;;;;22.25;14.63;;;;;;;26.35;66.91;100656.41;5052753;28;20160;-81
2023/06/29 10:45:34;;;;;;;22.90;14.00;;;;;;;26.48;67.35;100658.59;5039793;28;20108;-79
2023/06/29 10:48:06;;;;;;;33.03;19.40;;;;;;;26.39;66.55;100660.19;5057851;28;20052;-79
2023/06/29 10:50:36;;;;;;;22.60;14.23;;;;;;;26.50;67.51;100653.78;5057703;28;20048;-80
2023/06/29 10:53:04;;;;;;;18.17;13.27;;;;;;;26.64;67.48;100652.25;5060678;28;20103;-81
2023/06/29 10:55:40;;;;;;;20.25;13.30;;;;;;;26.34;66.32;100641.38;5059648;28;20135;-80
2023/06/29 10:58:14;;;;;;;22.17;12.75;;;;;;;26.22;66.69;100648.78;5058805;28;20404;-80
2023/06/29 11:00:42;;;;;;;18.75;12.93;;;;;;;26.61;66.05;100639.34;5058550;28;20049;-79
2023/06/29 11:03:09;;;;;;;18.35;12.23;;;;;;;26.78;65.79;100647.22;5060809;28;20136;-80
2023/06/29 11:05:37;;;;;;;31.55;13.55;;;;;;;27.11;65.53;100651.34;5059553;28;20061;-79
2023/06/29 11:08:05;;;;;;;32.97;13.15;;;;;;;27.16;63.88;100637.13;5059412;28;20132;-80
2023/06/29 11:10:32;;;;;;;26.25;12.85;;;;;;;27.62;63.94;100651.47;5060293;28;20512;-81
2023/06/29 11:12:59;;;;;;;20.50;12.45;;;;;;;27.81;62.61;100649.06;5061423;28;20100;-79
2023/06/29 11:15:28;;;;;;;19.50;12.00;;;;;;;27.77;61.81;100640.72;5060581;28;20072;-79
2023/06/29 11:17:56;;;;;;;22.50;11.30;;;;;;;28.12;61.20;100642.56;5057871;28;20057;-79
2023/06/29 11:20:28;;;;;;;15.90;10.60;;;;;;;28.06;60.16;100631.00;5059210;28;20068;-82